sensor_id;sensor_type;location;lat;lon;timestamp;pressure;altitude;pressure_sealevel;temperature;humidity
54816;BME280;40715;55.752;37.884;2022-08-20T00:00:30;100143.56;;;20.24;37.79
54816;BME280;40715;55.752;37.884;2022-08-20T00:03:01;100140.19;;;20.20;38.14
54816;BME280;40715;55.752;37.884;2022-08-20T00:05:37;100137.94;;;20.12;38.19
54816;BME280;40715;55.752;37.884;2022-08-20T00:08:05;100139.91;;;20.09;38.10
54816;BME280;40715;55.752;37.884;2022-08-20T00:10:35;100141.81;;;20.07;38.43
54816;BME280;40715;55.752;37.884;2022-08-20T00:13:05;100139.25;;;20.04;38.31
54816;BME280;40715;55.752;37.884;2022-08-20T00:15:35;100146.78;;;19.97;38.63
54816;BME280;40715;55.752;37.884;2022-08-20T00:18:03;100139.13;;;19.89;39.10
54816;BME280;40715;55.752;37.884;2022-08-20T00:20:35;100145.53;;;19.87;39.50
54816;BME280;40715;55.752;37.884;2022-08-20T00:23:03;100126.31;;;19.78;39.58
54816;BME280;40715;55.752;37.884;2022-08-20T00:25:35;100133.34;;;19.81;39.58
54816;BME280;40715;55.752;37.884;2022-08-20T00:28:03;100144.06;;;19.81;39.51
54816;BME280;40715;55.752;37.884;2022-08-20T00:30:30;100138.97;;;19.75;40.02
54816;BME280;40715;55.752;37.884;2022-08-20T00:33:04;100152.25;;;19.76;40.11
54816;BME280;40715;55.752;37.884;2022-08-20T00:35:36;100155.19;;;19.72;40.59
54816;BME280;40715;55.752;37.884;2022-08-20T00:38:04;100162.34;;;19.71;40.85
54816;BME280;40715;55.752;37.884;2022-08-20T00:40:38;100153.44;;;19.71;40.77
54816;BME280;40715;55.752;37.884;2022-08-20T00:43:12;100164.03;;;19.72;40.83
54816;BME280;40715;55.752;37.884;2022-08-20T00:45:49;100167.59;;;19.73;40.98
54816;BME280;40715;55.752;37.884;2022-08-20T00:48:25;100165.88;;;19.72;41.14
54816;BME280;40715;55.752;37.884;2022-08-20T00:50:56;100152.84;;;19.65;41.01
54816;BME280;40715;55.752;37.884;2022-08-20T00:53:25;100172.94;;;19.73;41.00
54816;BME280;40715;55.752;37.884;2022-08-20T00:55:53;100171.97;;;19.74;41.14
54816;BME280;40715;55.752;37.884;2022-08-20T00:58:21;100161.38;;;19.72;41.12
54816;BME280;40715;55.752;37.884;2022-08-20T01:00:48;100156.09;;;19.71;41.26
54816;BME280;40715;55.752;37.884;2022-08-20T01:03:17;100166.81;;;19.71;41.24
54816;BME280;40715;55.752;37.884;2022-08-20T01:05:48;100160.03;;;19.63;41.30
54816;BME280;40715;55.752;37.884;2022-08-20T01:08:18;100181.19;;;19.68;41.17
54816;BME280;40715;55.752;37.884;2022-08-20T01:10:47;100175.38;;;19.60;41.68
54816;BME280;40715;55.752;37.884;2022-08-20T01:13:19;100164.06;;;19.55;41.81
54816;BME280;40715;55.752;37.884;2022-08-20T01:15:49;100170.50;;;19.51;42.18
54816;BME280;40715;55.752;37.884;2022-08-20T01:18:20;100152.88;;;19.46;42.16
54816;BME280;40715;55.752;37.884;2022-08-20T01:20:57;100165.84;;;19.37;41.93
54816;BME280;40715;55.752;37.884;2022-08-20T01:23:50;100168.84;;;19.30;42.21
54816;BME280;40715;55.752;37.884;2022-08-20T01:26:25;100168.56;;;19.18;42.20
54816;BME280;40715;55.752;37.884;2022-08-20T01:29:00;100168.97;;;19.10;42.16
54816;BME280;40715;55.752;37.884;2022-08-20T01:31:33;100178.31;;;19.01;42.59
54816;BME280;40715;55.752;37.884;2022-08-20T01:34:04;100173.31;;;18.93;42.69
54816;BME280;40715;55.752;37.884;2022-08-20T01:36:41;100175.22;;;18.91;42.65
54816;BME280;40715;55.752;37.884;2022-08-20T01:39:14;100168.31;;;18.86;42.84
54816;BME280;40715;55.752;37.884;2022-08-20T01:42:08;100168.53;;;18.81;43.29
54816;BME280;40715;55.752;37.884;2022-08-20T01:44:40;100170.84;;;18.70;43.25
54816;BME280;40715;55.752;37.884;2022-08-20T01:47:14;100152.31;;;18.48;43.76
54816;BME280;40715;55.752;37.884;2022-08-20T01:49:46;100174.44;;;18.50;43.69
54816;BME280;40715;55.752;37.884;2022-08-20T01:54:52;100146.00;;;18.29;43.92
54816;BME280;40715;55.752;37.884;2022-08-20T01:57:23;100173.00;;;18.42;44.50
54816;BME280;40715;55.752;37.884;2022-08-20T01:59:52;100168.59;;;18.60;43.95
54816;BME280;40715;55.752;37.884;2022-08-20T02:02:19;100167.69;;;18.61;43.70
54816;BME280;40715;55.752;37.884;2022-08-20T02:04:47;100171.06;;;18.65;43.72
54816;BME280;40715;55.752;37.884;2022-08-20T02:07:18;100171.28;;;18.60;43.63
54816;BME280;40715;55.752;37.884;2022-08-20T02:09:46;100172.34;;;18.56;43.69
54816;BME280;40715;55.752;37.884;2022-08-20T02:12:14;100179.78;;;18.50;44.21
54816;BME280;40715;55.752;37.884;2022-08-20T02:14:46;100179.13;;;18.44;44.29
54816;BME280;40715;55.752;37.884;2022-08-20T02:17:14;100191.75;;;18.41;44.10
54816;BME280;40715;55.752;37.884;2022-08-20T02:19:45;100179.63;;;18.34;44.52
54816;BME280;40715;55.752;37.884;2022-08-20T02:24:52;100162.38;;;18.22;45.01
54816;BME280;40715;55.752;37.884;2022-08-20T02:27:19;100184.56;;;18.22;45.18
54816;BME280;40715;55.752;37.884;2022-08-20T02:29:47;100186.31;;;18.23;45.36
54816;BME280;40715;55.752;37.884;2022-08-20T02:32:14;100173.91;;;18.22;45.47
54816;BME280;40715;55.752;37.884;2022-08-20T02:34:50;100185.47;;;18.23;45.59
54816;BME280;40715;55.752;37.884;2022-08-20T02:37:17;100182.72;;;18.24;45.53
54816;BME280;40715;55.752;37.884;2022-08-20T02:39:45;100184.88;;;18.16;45.87
54816;BME280;40715;55.752;37.884;2022-08-20T02:42:12;100191.53;;;18.06;46.49
54816;BME280;40715;55.752;37.884;2022-08-20T02:44:40;100193.94;;;18.12;46.58
54816;BME280;40715;55.752;37.884;2022-08-20T02:47:06;100187.31;;;18.21;46.73
54816;BME280;40715;55.752;37.884;2022-08-20T02:49:33;100194.84;;;18.32;46.40
54816;BME280;40715;55.752;37.884;2022-08-20T02:52:01;100188.38;;;18.37;46.61
54816;BME280;40715;55.752;37.884;2022-08-20T02:54:28;100194.84;;;18.51;46.88
54816;BME280;40715;55.752;37.884;2022-08-20T02:56:55;100193.16;;;18.69;46.15
54816;BME280;40715;55.752;37.884;2022-08-20T02:59:22;100197.88;;;18.81;45.91
54816;BME280;40715;55.752;37.884;2022-08-20T03:01:49;100192.06;;;18.92;45.57
54816;BME280;40715;55.752;37.884;2022-08-20T03:04:24;100196.31;;;19.15;45.31
54816;BME280;40715;55.752;37.884;2022-08-20T03:06:51;100200.56;;;19.37;45.03
54816;BME280;40715;55.752;37.884;2022-08-20T03:09:18;100140.53;;;19.26;44.70
54816;BME280;40715;55.752;37.884;2022-08-20T03:11:45;100178.38;;;19.71;44.23
54816;BME280;40715;55.752;37.884;2022-08-20T03:14:12;100196.41;;;20.03;43.84
54816;BME280;40715;55.752;37.884;2022-08-20T03:16:39;100206.03;;;20.23;43.41
54816;BME280;40715;55.752;37.884;2022-08-20T03:19:05;100196.22;;;20.39;43.08
54816;BME280;40715;55.752;37.884;2022-08-20T03:21:33;100200.94;;;20.51;42.75
54816;BME280;40715;55.752;37.884;2022-08-20T03:24:00;100215.25;;;20.68;42.57
54816;BME280;40715;55.752;37.884;2022-08-20T03:26:27;100209.00;;;20.83;42.08
54816;BME280;40715;55.752;37.884;2022-08-20T03:28:54;100227.09;;;21.12;41.82
54816;BME280;40715;55.752;37.884;2022-08-20T03:31:21;100209.53;;;21.38;41.21
54816;BME280;40715;55.752;37.884;2022-08-20T03:33:48;100207.75;;;21.69;40.69
54816;BME280;40715;55.752;37.884;2022-08-20T03:36:23;100215.03;;;22.12;39.86
54816;BME280;40715;55.752;37.884;2022-08-20T03:38:57;100219.88;;;22.50;39.16
54816;BME280;40715;55.752;37.884;2022-08-20T03:41:24;100215.34;;;22.79;38.33
54816;BME280;40715;55.752;37.884;2022-08-20T03:43:51;100214.69;;;23.32;37.68
54816;BME280;40715;55.752;37.884;2022-08-20T03:46:19;100225.97;;;23.91;36.71
54816;BME280;40715;55.752;37.884;2022-08-20T03:48:47;100212.09;;;24.36;35.70
54816;BME280;40715;55.752;37.884;2022-08-20T03:51:14;100215.34;;;25.04;34.90
54816;BME280;40715;55.752;37.884;2022-08-20T03:53:41;100221.84;;;25.74;33.60
54816;BME280;40715;55.752;37.884;2022-08-20T03:56:08;100228.72;;;26.03;32.97
54816;BME280;40715;55.752;37.884;2022-08-20T03:58:35;100227.41;;;26.42;32.29
54816;BME280;40715;55.752;37.884;2022-08-20T04:01:05;100223.75;;;26.77;32.00
54816;BME280;40715;55.752;37.884;2022-08-20T04:03:32;100208.34;;;27.12;31.17
54816;BME280;40715;55.752;37.884;2022-08-20T04:06:00;100232.13;;;27.41;30.21
54816;BME280;40715;55.752;37.884;2022-08-20T04:08:28;100232.41;;;27.70;29.61
54816;BME280;40715;55.752;37.884;2022-08-20T04:10:56;100228.38;;;27.85;29.19
54816;BME280;40715;55.752;37.884;2022-08-20T04:13:24;100229.06;;;28.20;28.95
54816;BME280;40715;55.752;37.884;2022-08-20T04:15:52;100232.00;;;28.59;28.16
54816;BME280;40715;55.752;37.884;2022-08-20T04:18:23;100218.13;;;28.52;27.88
54816;BME280;40715;55.752;37.884;2022-08-20T04:20:52;100239.38;;;28.78;27.22
54816;BME280;40715;55.752;37.884;2022-08-20T04:23:20;100226.88;;;28.97;26.75
54816;BME280;40715;55.752;37.884;2022-08-20T04:25:47;100215.72;;;29.50;26.55
54816;BME280;40715;55.752;37.884;2022-08-20T04:28:18;100226.81;;;30.16;25.80
54816;BME280;40715;55.752;37.884;2022-08-20T04:30:56;100226.69;;;30.64;25.26
54816;BME280;40715;55.752;37.884;2022-08-20T04:33:24;100227.78;;;31.45;23.96
54816;BME280;40715;55.752;37.884;2022-08-20T04:35:59;100226.09;;;31.98;23.56
54816;BME280;40715;55.752;37.884;2022-08-20T04:38:29;100223.09;;;32.10;23.04
54816;BME280;40715;55.752;37.884;2022-08-20T04:41:13;100223.28;;;32.34;22.29
54816;BME280;40715;55.752;37.884;2022-08-20T04:43:46;100229.41;;;32.63;21.96
54816;BME280;40715;55.752;37.884;2022-08-20T04:46:13;100231.75;;;32.92;22.11
54816;BME280;40715;55.752;37.884;2022-08-20T04:48:41;100237.84;;;32.78;21.25
54816;BME280;40715;55.752;37.884;2022-08-20T04:51:08;100240.88;;;32.40;21.39
54816;BME280;40715;55.752;37.884;2022-08-20T04:53:36;100248.03;;;32.41;21.56
54816;BME280;40715;55.752;37.884;2022-08-20T04:56:03;100252.59;;;32.32;21.73
54816;BME280;40715;55.752;37.884;2022-08-20T04:58:33;100245.16;;;32.43;21.27
54816;BME280;40715;55.752;37.884;2022-08-20T05:01:04;100222.94;;;32.98;21.02
54816;BME280;40715;55.752;37.884;2022-08-20T05:03:31;100254.63;;;33.50;20.70
54816;BME280;40715;55.752;37.884;2022-08-20T05:05:58;100226.16;;;33.61;20.20
54816;BME280;40715;55.752;37.884;2022-08-20T05:08:27;100229.06;;;34.09;19.53
54816;BME280;40715;55.752;37.884;2022-08-20T05:10:56;100229.56;;;34.13;18.90
54816;BME280;40715;55.752;37.884;2022-08-20T05:13:32;100222.72;;;33.43;19.82
54816;BME280;40715;55.752;37.884;2022-08-20T05:15:59;100227.25;;;33.17;19.83
54816;BME280;40715;55.752;37.884;2022-08-20T05:18:27;100235.25;;;33.78;19.66
54816;BME280;40715;55.752;37.884;2022-08-20T05:20:58;100230.00;;;32.75;19.79
54816;BME280;40715;55.752;37.884;2022-08-20T05:23:30;100251.09;;;31.40;21.03
54816;BME280;40715;55.752;37.884;2022-08-20T05:25:57;100233.72;;;30.00;22.24
54816;BME280;40715;55.752;37.884;2022-08-20T05:28:27;100237.19;;;29.13;23.45
54816;BME280;40715;55.752;37.884;2022-08-20T05:31:00;100231.34;;;28.67;24.06
54816;BME280;40715;55.752;37.884;2022-08-20T05:33:28;100220.53;;;27.82;24.56
54816;BME280;40715;55.752;37.884;2022-08-20T05:35:56;100234.00;;;27.29;25.19
54816;BME280;40715;55.752;37.884;2022-08-20T05:38:26;100231.09;;;26.98;25.92
54816;BME280;40715;55.752;37.884;2022-08-20T05:40:54;100238.75;;;26.70;26.34
54816;BME280;40715;55.752;37.884;2022-08-20T05:43:21;100245.69;;;26.27;26.69
54816;BME280;40715;55.752;37.884;2022-08-20T05:45:48;100237.50;;;25.69;27.56
54816;BME280;40715;55.752;37.884;2022-08-20T05:48:23;100235.81;;;25.07;28.50
54816;BME280;40715;55.752;37.884;2022-08-20T05:50:52;100241.84;;;24.60;29.26
54816;BME280;40715;55.752;37.884;2022-08-20T05:53:21;100239.66;;;24.27;29.51
54816;BME280;40715;55.752;37.884;2022-08-20T05:55:49;100250.84;;;24.08;29.93
54816;BME280;40715;55.752;37.884;2022-08-20T05:58:20;100247.38;;;23.93;30.05
54816;BME280;40715;55.752;37.884;2022-08-20T06:00:49;100253.78;;;23.77;30.54
54816;BME280;40715;55.752;37.884;2022-08-20T06:03:16;100252.00;;;23.64;30.93
54816;BME280;40715;55.752;37.884;2022-08-20T06:06:03;100249.47;;;23.48;31.20
54816;BME280;40715;55.752;37.884;2022-08-20T06:08:30;100245.91;;;23.47;31.80
54816;BME280;40715;55.752;37.884;2022-08-20T06:10:57;100251.72;;;23.41;31.74
54816;BME280;40715;55.752;37.884;2022-08-20T06:13:24;100262.66;;;23.38;31.83
54816;BME280;40715;55.752;37.884;2022-08-20T06:15:52;100257.88;;;23.29;32.17
54816;BME280;40715;55.752;37.884;2022-08-20T06:18:19;100239.75;;;23.32;32.14
54816;BME280;40715;55.752;37.884;2022-08-20T06:20:54;100225.97;;;23.37;32.06
54816;BME280;40715;55.752;37.884;2022-08-20T06:23:22;100230.00;;;23.44;32.19
54816;BME280;40715;55.752;37.884;2022-08-20T06:25:51;100232.94;;;23.54;31.84
54816;BME280;40715;55.752;37.884;2022-08-20T06:28:18;100249.22;;;23.65;32.15
54816;BME280;40715;55.752;37.884;2022-08-20T06:30:45;100240.22;;;23.79;31.71
54816;BME280;40715;55.752;37.884;2022-08-20T06:33:12;100257.09;;;23.81;31.92
54816;BME280;40715;55.752;37.884;2022-08-20T06:35:40;100223.72;;;23.71;31.80
54816;BME280;40715;55.752;37.884;2022-08-20T06:38:09;100226.75;;;23.79;31.73
54816;BME280;40715;55.752;37.884;2022-08-20T06:40:37;100235.84;;;23.91;31.99
54816;BME280;40715;55.752;37.884;2022-08-20T06:43:04;100184.03;;;23.74;31.93
54816;BME280;40715;55.752;37.884;2022-08-20T06:45:36;100228.25;;;24.10;32.02
54816;BME280;40715;55.752;37.884;2022-08-20T06:48:09;100234.16;;;24.16;32.01
54816;BME280;40715;55.752;37.884;2022-08-20T06:50:39;100232.22;;;24.18;31.78
54816;BME280;40715;55.752;37.884;2022-08-20T06:53:15;100228.88;;;24.01;31.49
54816;BME280;40715;55.752;37.884;2022-08-20T06:55:46;100226.44;;;23.84;32.13
54816;BME280;40715;55.752;37.884;2022-08-20T06:58:14;100236.44;;;23.69;32.49
54816;BME280;40715;55.752;37.884;2022-08-20T07:01:01;100220.06;;;23.72;32.25
54816;BME280;40715;55.752;37.884;2022-08-20T07:03:35;100211.56;;;23.78;32.57
54816;BME280;40715;55.752;37.884;2022-08-20T07:06:04;100212.88;;;23.85;32.03
54816;BME280;40715;55.752;37.884;2022-08-20T07:08:31;100220.16;;;23.98;32.46
54816;BME280;40715;55.752;37.884;2022-08-20T07:10:58;100217.91;;;24.04;32.28
54816;BME280;40715;55.752;37.884;2022-08-20T07:13:26;100195.38;;;24.18;32.44
54816;BME280;40715;55.752;37.884;2022-08-20T07:15:54;100207.13;;;24.56;31.84
54816;BME280;40715;55.752;37.884;2022-08-20T07:18:22;100192.63;;;24.83;30.98
54816;BME280;40715;55.752;37.884;2022-08-20T07:20:53;100210.03;;;25.15;31.04
54816;BME280;40715;55.752;37.884;2022-08-20T07:23:24;100204.78;;;25.25;30.69
54816;BME280;40715;55.752;37.884;2022-08-20T07:25:52;100211.63;;;25.42;30.67
54816;BME280;40715;55.752;37.884;2022-08-20T07:28:23;100202.41;;;25.33;30.46
54816;BME280;40715;55.752;37.884;2022-08-20T07:30:51;100211.53;;;25.44;30.40
54816;BME280;40715;55.752;37.884;2022-08-20T07:33:38;100196.78;;;25.37;30.06
54816;BME280;40715;55.752;37.884;2022-08-20T07:36:06;100204.97;;;25.59;30.08
54816;BME280;40715;55.752;37.884;2022-08-20T07:38:35;100199.16;;;25.77;29.67
54816;BME280;40715;55.752;37.884;2022-08-20T07:41:05;100207.78;;;25.93;29.33
54816;BME280;40715;55.752;37.884;2022-08-20T07:43:33;100207.38;;;26.45;28.80
54816;BME280;40715;55.752;37.884;2022-08-20T07:46:01;100218.38;;;27.32;27.74
54816;BME280;40715;55.752;37.884;2022-08-20T07:48:34;100213.94;;;28.17;26.68
54816;BME280;40715;55.752;37.884;2022-08-20T07:51:03;100194.28;;;28.87;25.75
54816;BME280;40715;55.752;37.884;2022-08-20T07:53:32;100203.78;;;30.20;25.16
54816;BME280;40715;55.752;37.884;2022-08-20T07:56:03;100193.16;;;31.65;23.16
54816;BME280;40715;55.752;37.884;2022-08-20T07:58:32;100202.72;;;32.75;21.88
54816;BME280;40715;55.752;37.884;2022-08-20T08:01:01;100210.94;;;34.33;19.86
54816;BME280;40715;55.752;37.884;2022-08-20T08:03:29;100216.56;;;34.87;18.88
54816;BME280;40715;55.752;37.884;2022-08-20T08:06:05;100206.94;;;34.52;18.63
54816;BME280;40715;55.752;37.884;2022-08-20T08:08:32;100210.31;;;33.81;18.89
54816;BME280;40715;55.752;37.884;2022-08-20T08:11:01;100211.91;;;32.74;19.35
54816;BME280;40715;55.752;37.884;2022-08-20T08:13:33;100205.88;;;32.27;19.85
54816;BME280;40715;55.752;37.884;2022-08-20T08:16:03;100209.28;;;32.29;19.79
54816;BME280;40715;55.752;37.884;2022-08-20T08:18:35;100202.41;;;35.15;18.44
54816;BME280;40715;55.752;37.884;2022-08-20T08:21:05;100197.41;;;39.61;15.21
54816;BME280;40715;55.752;37.884;2022-08-20T08:23:33;100212.44;;;42.81;12.75
54816;BME280;40715;55.752;37.884;2022-08-20T08:26:00;100213.59;;;43.22;11.80
54816;BME280;40715;55.752;37.884;2022-08-20T08:28:27;100204.44;;;41.28;12.03
54816;BME280;40715;55.752;37.884;2022-08-20T08:30:55;100237.63;;;38.80;13.16
54816;BME280;40715;55.752;37.884;2022-08-20T08:33:26;100231.03;;;36.05;14.64
54816;BME280;40715;55.752;37.884;2022-08-20T08:35:54;100208.53;;;34.21;16.10
54816;BME280;40715;55.752;37.884;2022-08-20T08:38:23;100222.47;;;33.11;17.07
54816;BME280;40715;55.752;37.884;2022-08-20T08:40:54;100193.84;;;31.94;18.27
54816;BME280;40715;55.752;37.884;2022-08-20T08:43:24;100214.00;;;31.11;18.70
54816;BME280;40715;55.752;37.884;2022-08-20T08:46:02;100216.25;;;30.03;19.66
54816;BME280;40715;55.752;37.884;2022-08-20T08:48:36;100212.72;;;28.93;20.33
54816;BME280;40715;55.752;37.884;2022-08-20T08:51:06;100219.91;;;28.11;21.24
54816;BME280;40715;55.752;37.884;2022-08-20T08:53:47;100226.34;;;27.45;21.58
54816;BME280;40715;55.752;37.884;2022-08-20T08:56:16;100219.56;;;26.84;22.00
54816;BME280;40715;55.752;37.884;2022-08-20T08:58:44;100210.47;;;26.51;22.63
54816;BME280;40715;55.752;37.884;2022-08-20T09:01:18;100222.75;;;26.33;22.76
54816;BME280;40715;55.752;37.884;2022-08-20T09:04:06;100232.31;;;26.26;23.15
54816;BME280;40715;55.752;37.884;2022-08-20T09:06:34;100233.66;;;26.20;22.98
54816;BME280;40715;55.752;37.884;2022-08-20T09:09:04;100218.97;;;26.00;23.42
54816;BME280;40715;55.752;37.884;2022-08-20T09:11:47;100247.63;;;25.78;23.56
54816;BME280;40715;55.752;37.884;2022-08-20T09:14:15;100232.44;;;25.53;23.97
54816;BME280;40715;55.752;37.884;2022-08-20T09:16:42;100223.78;;;25.24;24.40
54816;BME280;40715;55.752;37.884;2022-08-20T09:19:19;100222.91;;;24.99;24.43
54816;BME280;40715;55.752;37.884;2022-08-20T09:21:47;100226.59;;;24.85;24.76
54816;BME280;40715;55.752;37.884;2022-08-20T09:24:14;100235.69;;;24.71;25.10
54816;BME280;40715;55.752;37.884;2022-08-20T09:26:42;100246.88;;;24.52;25.42
54816;BME280;40715;55.752;37.884;2022-08-20T09:29:09;100241.72;;;24.23;25.60
54816;BME280;40715;55.752;37.884;2022-08-20T09:31:36;100232.31;;;24.03;26.39
54816;BME280;40715;55.752;37.884;2022-08-20T09:34:04;100248.97;;;23.95;26.90
54816;BME280;40715;55.752;37.884;2022-08-20T09:36:31;100233.66;;;23.83;27.06
54816;BME280;40715;55.752;37.884;2022-08-20T09:38:59;100238.63;;;23.49;27.95
54816;BME280;40715;55.752;37.884;2022-08-20T09:41:28;100247.22;;;23.54;27.96
54816;BME280;40715;55.752;37.884;2022-08-20T09:43:55;100243.47;;;23.57;28.17
54816;BME280;40715;55.752;37.884;2022-08-20T09:46:22;100245.72;;;23.50;28.90
54816;BME280;40715;55.752;37.884;2022-08-20T09:48:53;100229.28;;;23.55;29.25
54816;BME280;40715;55.752;37.884;2022-08-20T09:51:20;100246.66;;;23.76;29.34
54816;BME280;40715;55.752;37.884;2022-08-20T09:53:47;100244.59;;;23.67;29.53
54816;BME280;40715;55.752;37.884;2022-08-20T09:56:14;100243.47;;;23.57;29.98
54816;BME280;40715;55.752;37.884;2022-08-20T09:58:49;100231.06;;;23.69;30.06
54816;BME280;40715;55.752;37.884;2022-08-20T10:01:18;100234.63;;;23.82;30.01
54816;BME280;40715;55.752;37.884;2022-08-20T10:03:46;100229.91;;;23.86;30.19
54816;BME280;40715;55.752;37.884;2022-08-20T10:06:16;100222.22;;;23.79;30.60
54816;BME280;40715;55.752;37.884;2022-08-20T10:08:46;100212.66;;;23.75;30.82
54816;BME280;40715;55.752;37.884;2022-08-20T10:11:13;100210.38;;;23.69;30.87
54816;BME280;40715;55.752;37.884;2022-08-20T10:13:40;100166.94;;;23.35;31.80
54816;BME280;40715;55.752;37.884;2022-08-20T10:16:07;100160.50;;;23.38;31.91
54816;BME280;40715;55.752;37.884;2022-08-20T10:18:35;100181.69;;;23.42;32.08
54816;BME280;40715;55.752;37.884;2022-08-20T10:21:02;100195.88;;;23.32;32.54
54816;BME280;40715;55.752;37.884;2022-08-20T10:23:34;100207.78;;;23.27;32.58
54816;BME280;40715;55.752;37.884;2022-08-20T10:26:01;100214.13;;;23.26;33.08
54816;BME280;40715;55.752;37.884;2022-08-20T10:28:27;100209.16;;;23.20;33.50
54816;BME280;40715;55.752;37.884;2022-08-20T10:30:54;100203.00;;;23.18;33.55
54816;BME280;40715;55.752;37.884;2022-08-20T10:33:21;100204.13;;;23.29;33.67
54816;BME280;40715;55.752;37.884;2022-08-20T10:35:48;100207.72;;;23.42;33.42
54816;BME280;40715;55.752;37.884;2022-08-20T10:38:15;100203.78;;;23.48;33.39
54816;BME280;40715;55.752;37.884;2022-08-20T10:40:42;100195.81;;;23.46;33.57
54816;BME280;40715;55.752;37.884;2022-08-20T10:43:09;100214.88;;;23.56;33.14
54816;BME280;40715;55.752;37.884;2022-08-20T10:45:36;100203.13;;;23.57;33.51
54816;BME280;40715;55.752;37.884;2022-08-20T10:48:03;100209.28;;;23.59;33.75
54816;BME280;40715;55.752;37.884;2022-08-20T10:50:33;100189.41;;;23.61;33.92
54816;BME280;40715;55.752;37.884;2022-08-20T10:52:59;100181.97;;;23.65;33.70
54816;BME280;40715;55.752;37.884;2022-08-20T10:55:26;100181.84;;;23.67;33.66
54816;BME280;40715;55.752;37.884;2022-08-20T10:57:53;100200.06;;;23.63;33.27
54816;BME280;40715;55.752;37.884;2022-08-20T11:00:20;100186.03;;;23.58;33.32
54816;BME280;40715;55.752;37.884;2022-08-20T11:02:48;100191.06;;;23.50;33.40
54816;BME280;40715;55.752;37.884;2022-08-20T11:05:16;100186.16;;;23.56;33.38
54816;BME280;40715;55.752;37.884;2022-08-20T11:07:43;100192.28;;;23.71;32.73
54816;BME280;40715;55.752;37.884;2022-08-20T11:10:16;100172.06;;;23.78;32.68
54816;BME280;40715;55.752;37.884;2022-08-20T11:12:43;100190.66;;;23.96;32.18
54816;BME280;40715;55.752;37.884;2022-08-20T11:15:10;100186.25;;;23.95;32.46
54816;BME280;40715;55.752;37.884;2022-08-20T11:17:40;100179.22;;;23.92;32.72
54816;BME280;40715;55.752;37.884;2022-08-20T11:20:08;100172.03;;;23.93;32.32
54816;BME280;40715;55.752;37.884;2022-08-20T11:22:36;100178.06;;;23.97;32.19
54816;BME280;40715;55.752;37.884;2022-08-20T11:25:04;100172.22;;;23.90;32.58
54816;BME280;40715;55.752;37.884;2022-08-20T11:27:37;100167.72;;;24.03;32.63
54816;BME280;40715;55.752;37.884;2022-08-20T11:30:08;100164.06;;;24.17;32.52
54816;BME280;40715;55.752;37.884;2022-08-20T11:32:36;100171.03;;;24.33;32.03
54816;BME280;40715;55.752;37.884;2022-08-20T11:35:03;100172.75;;;24.46;32.19
54816;BME280;40715;55.752;37.884;2022-08-20T11:37:51;100182.00;;;24.55;31.78
54816;BME280;40715;55.752;37.884;2022-08-20T11:40:19;100174.56;;;24.59;32.05
54816;BME280;40715;55.752;37.884;2022-08-20T11:42:46;100157.38;;;24.49;31.70
54816;BME280;40715;55.752;37.884;2022-08-20T11:45:33;100151.97;;;24.49;31.58
54816;BME280;40715;55.752;37.884;2022-08-20T11:48:03;100148.41;;;24.48;31.86
54816;BME280;40715;55.752;37.884;2022-08-20T11:50:30;100153.16;;;24.44;31.38
54816;BME280;40715;55.752;37.884;2022-08-20T11:52:57;100144.53;;;24.39;31.46
54816;BME280;40715;55.752;37.884;2022-08-20T11:55:24;100143.09;;;24.59;31.12
54816;BME280;40715;55.752;37.884;2022-08-20T11:57:54;100177.06;;;24.49;30.51
54816;BME280;40715;55.752;37.884;2022-08-20T12:00:21;100151.63;;;24.53;29.63
54816;BME280;40715;55.752;37.884;2022-08-20T12:02:54;100148.41;;;24.48;29.56
54816;BME280;40715;55.752;37.884;2022-08-20T12:05:21;100153.38;;;24.67;29.19
54816;BME280;40715;55.752;37.884;2022-08-20T12:07:48;100138.25;;;24.77;29.09
54816;BME280;40715;55.752;37.884;2022-08-20T12:10:15;100146.50;;;24.87;28.34
54816;BME280;40715;55.752;37.884;2022-08-20T12:12:42;100135.44;;;25.03;27.99
54816;BME280;40715;55.752;37.884;2022-08-20T12:15:10;100152.16;;;25.20;27.96
54816;BME280;40715;55.752;37.884;2022-08-20T12:17:37;100128.63;;;25.35;27.65
54816;BME280;40715;55.752;37.884;2022-08-20T12:20:09;100135.03;;;25.45;26.82
54816;BME280;40715;55.752;37.884;2022-08-20T12:22:36;100138.13;;;25.52;27.03
54816;BME280;40715;55.752;37.884;2022-08-20T12:25:04;100125.13;;;25.57;26.46
54816;BME280;40715;55.752;37.884;2022-08-20T12:27:33;100162.69;;;25.60;26.16
54816;BME280;40715;55.752;37.884;2022-08-20T12:30:07;100116.78;;;25.48;26.25
54816;BME280;40715;55.752;37.884;2022-08-20T12:32:35;100131.63;;;25.54;26.50
54816;BME280;40715;55.752;37.884;2022-08-20T12:35:03;100093.06;;;25.41;26.79
54816;BME280;40715;55.752;37.884;2022-08-20T12:37:31;100110.63;;;25.46;26.85
54816;BME280;40715;55.752;37.884;2022-08-20T12:40:00;100107.81;;;25.48;27.01
54816;BME280;40715;55.752;37.884;2022-08-20T12:42:28;100116.25;;;25.43;27.12
54816;BME280;40715;55.752;37.884;2022-08-20T12:44:57;100108.06;;;25.45;27.16
54816;BME280;40715;55.752;37.884;2022-08-20T12:47:28;100103.41;;;25.47;27.37
54816;BME280;40715;55.752;37.884;2022-08-20T12:50:00;100117.28;;;25.29;27.53
54816;BME280;40715;55.752;37.884;2022-08-20T12:52:29;100119.88;;;25.07;27.84
54816;BME280;40715;55.752;37.884;2022-08-20T12:54:57;100123.50;;;24.94;28.03
54816;BME280;40715;55.752;37.884;2022-08-20T12:57:36;100104.34;;;24.86;27.91